Time;durP1;ratioP1;P1;durP2;ratioP2;P2;SDS_P1;SDS_P2;PMS_P1;PMS_P2;Temp;Humidity;BMP_temperature;BMP_pressure;BME280_temperature;BME280_humidity;BME280_pressure;Samples;Min_cycle;Max_cycle;Signal;HPM_P1;HPM_P2
2021/07/24 00:01:17;;;;;;;7.47;4.95;;;;;;;24.50;100.00;101041.75;5002038;28;20034;-69
2021/07/24 00:04:02;;;;;;;9.55;5.45;;;;;;;24.22;100.00;101039.31;5002157;28;20431;-69
2021/07/24 00:06:48;;;;;;;7.05;5.25;;;;;;;24.47;100.00;101042.84;5015307;28;20021;-69
2021/07/24 00:09:34;;;;;;;7.10;5.30;;;;;;;24.32;100.00;101046.59;5014652;28;20022;-69
2021/07/24 00:12:20;;;;;;;16.88;5.75;;;;;;;24.38;100.00;101046.16;5015734;28;20470;-70
2021/07/24 00:15:05;;;;;;;8.30;5.15;;;;;;;24.57;100.00;101043.06;5001817;28;20029;-69
2021/07/24 00:17:51;;;;;;;6.28;4.63;;;;;;;24.32;100.00;101037.69;5015632;28;20030;-69
2021/07/24 00:20:37;;;;;;;8.55;5.40;;;;;;;24.63;100.00;101042.69;5001901;28;20036;-70
2021/07/24 00:23:23;;;;;;;10.73;4.90;;;;;;;24.20;100.00;101043.91;5002477;28;20026;-69
2021/07/24 00:26:13;;;;;;;9.68;5.13;;;;;;;24.07;100.00;101051.06;5001494;28;20051;-69
2021/07/24 00:29:00;;;;;;;8.90;5.07;;;;;;;23.68;100.00;101043.84;5014563;28;20036;-68
2021/07/24 00:31:46;;;;;;;7.35;5.22;;;;;;;23.53;100.00;101039.50;5014391;28;20040;-69
2021/07/24 00:34:32;;;;;;;6.90;5.10;;;;;;;23.59;100.00;101032.88;5014300;28;20512;-69
2021/07/24 00:37:20;;;;;;;7.88;4.90;;;;;;;23.52;100.00;101031.56;5018518;28;20037;-69
2021/07/24 00:40:09;;;;;;;5.70;4.97;;;;;;;23.20;100.00;101034.50;5018218;28;20021;-69
2021/07/24 00:42:57;;;;;;;10.70;4.80;;;;;;;23.42;100.00;101039.31;5017003;28;20049;-69
2021/07/24 00:45:48;;;;;;;8.38;4.93;;;;;;;23.64;100.00;101038.78;5018614;28;20030;-69
2021/07/24 00:48:36;;;;;;;11.15;4.90;;;;;;;23.78;100.00;101034.22;5005283;28;20467;-69
2021/07/24 00:51:28;;;;;;;7.18;4.63;;;;;;;24.03;100.00;101042.34;5016916;28;20161;-69
2021/07/24 00:54:14;;;;;;;7.07;5.03;;;;;;;23.81;100.00;101043.88;5005216;28;20100;-69
2021/07/24 00:57:00;;;;;;;9.82;5.25;;;;;;;24.11;100.00;101044.53;5016627;28;20034;-69
2021/07/24 00:59:46;;;;;;;10.82;5.57;;;;;;;24.28;100.00;101046.91;5017645;28;20447;-69
2021/07/24 01:02:32;;;;;;;14.38;5.95;;;;;;;23.92;100.00;101041.38;5016793;28;20359;-69
2021/07/24 01:05:17;;;;;;;10.90;5.30;;;;;;;24.03;100.00;101036.16;5016833;28;20131;-70
2021/07/24 01:08:03;;;;;;;7.60;5.13;;;;;;;24.03;100.00;101036.16;5017074;28;20026;-70
2021/07/24 01:10:50;;;;;;;9.85;5.70;;;;;;;24.18;100.00;101037.81;5016648;28;20407;-69
2021/07/24 01:13:36;;;;;;;12.90;5.90;;;;;;;24.20;100.00;101038.53;5016883;28;20533;-70
2021/07/24 01:16:22;;;;;;;8.93;5.10;;;;;;;24.12;100.00;101030.19;5017238;28;20030;-69
2021/07/24 01:19:07;;;;;;;8.48;5.00;;;;;;;24.13;100.00;101035.44;5017009;28;20044;-69
2021/07/24 01:21:54;;;;;;;13.30;6.38;;;;;;;24.29;100.00;101029.88;5004973;28;20037;-69
2021/07/24 01:24:40;;;;;;;10.88;7.20;;;;;;;23.90;100.00;101025.38;5016378;28;20116;-70
2021/07/24 01:27:26;;;;;;;10.57;7.07;;;;;;;23.66;100.00;101023.50;5016175;28;20037;-69
2021/07/24 01:30:12;;;;;;;7.63;5.85;;;;;;;23.72;100.00;101021.28;5017136;28;20052;-69
2021/07/24 01:32:58;;;;;;;10.50;6.45;;;;;;;24.04;100.00;101022.69;5017140;28;20033;-70
2021/07/24 01:35:45;;;;;;;8.98;6.22;;;;;;;23.36;100.00;101018.34;5017350;28;20153;-69
2021/07/24 01:38:35;;;;;;;10.82;5.70;;;;;;;23.19;100.00;101019.41;5016085;28;20343;-69
2021/07/24 01:41:21;;;;;;;8.18;5.30;;;;;;;23.15;100.00;101014.38;5016303;28;20088;-69
2021/07/24 01:44:07;;;;;;;7.15;5.18;;;;;;;23.54;100.00;101010.94;5016089;28;20520;-69
2021/07/24 01:46:53;;;;;;;7.95;4.72;;;;;;;23.50;100.00;101009.44;5015867;28;20059;-69
2021/07/24 01:52:48;;;;;;;6.68;4.93;;;;;;;23.07;100.00;101017.50;5016957;28;20104;-70
2021/07/24 01:55:51;;;;;;;7.00;4.63;;;;;;;22.83;100.00;101015.56;5003013;28;20025;-69
2021/07/24 01:58:37;;;;;;;7.82;4.97;;;;;;;22.91;100.00;101014.09;5016541;28;20406;-69
2021/07/24 02:01:26;;;;;;;11.02;4.80;;;;;;;22.95;100.00;101020.97;5015974;28;20100;-69
2021/07/24 02:04:20;;;;;;;6.95;4.15;;;;;;;22.91;100.00;101019.44;5015949;28;20339;-69
2021/07/24 02:07:11;;;;;;;6.28;4.85;;;;;;;23.07;100.00;101017.50;5015649;28;20021;-69
2021/07/24 02:09:57;;;;;;;10.63;4.70;;;;;;;23.08;100.00;101023.72;5015901;28;20454;-69
2021/07/24 02:12:43;;;;;;;8.60;5.20;;;;;;;23.04;100.00;101020.41;5015669;28;20025;-69
2021/07/24 02:15:29;;;;;;;7.28;4.70;;;;;;;23.10;100.00;101019.13;5015934;28;20468;-69
2021/07/24 02:18:16;;;;;;;8.07;5.00;;;;;;;22.86;100.00;101018.88;5003613;28;20076;-69
2021/07/24 02:21:03;;;;;;;11.57;5.07;;;;;;;23.03;100.00;101012.47;5016559;28;20053;-69
2021/07/24 02:23:49;;;;;;;7.72;5.13;;;;;;;22.80;100.00;101013.94;5015805;28;20216;-69
2021/07/24 02:26:41;;;;;;;8.18;4.90;;;;;;;22.64;100.00;101012.31;5015050;28;20037;-69
2021/07/24 02:29:27;;;;;;;10.93;4.88;;;;;;;22.61;100.00;101009.81;5015994;28;20022;-69
2021/07/24 02:32:14;;;;;;;9.85;4.93;;;;;;;22.91;100.00;101015.94;5016267;28;20111;-69
2021/07/24 02:34:59;;;;;;;9.95;5.40;;;;;;;23.40;100.00;101012.69;5015542;28;20067;-70
2021/07/24 02:37:45;;;;;;;7.47;5.80;;;;;;;23.34;100.00;101015.78;5016435;28;20029;-69
2021/07/24 02:40:31;;;;;;;9.35;5.95;;;;;;;23.19;100.00;101022.06;5015786;28;20175;-70
2021/07/24 02:43:17;;;;;;;11.07;5.57;;;;;;;23.16;100.00;101016.91;5015675;28;20054;-70
2021/07/24 02:46:02;;;;;;;11.63;5.50;;;;;;;23.01;100.00;101022.41;5016104;28;20029;-70
2021/07/24 02:48:48;;;;;;;10.13;5.47;;;;;;;23.03;100.00;101020.50;5003328;28;20026;-70
2021/07/24 02:51:35;;;;;;;7.28;5.10;;;;;;;22.91;100.00;101016.78;5002890;28;20042;-70
2021/07/24 02:54:20;;;;;;;12.30;5.40;;;;;;;23.13;100.00;101019.81;5015356;28;20030;-70
2021/07/24 02:57:06;;;;;;;10.48;5.57;;;;;;;22.93;100.00;101019.34;5015250;28;20033;-70
2021/07/24 02:59:52;;;;;;;8.95;4.97;;;;;;;23.06;100.00;101025.63;5015352;28;20068;-69
2021/07/24 03:02:38;;;;;;;8.40;5.45;;;;;;;22.85;100.00;101027.00;5014400;28;20040;-69
2021/07/24 03:05:23;;;;;;;8.95;5.68;;;;;;;22.69;100.00;101034.25;5000744;28;20037;-70
2021/07/24 03:08:09;;;;;;;8.68;5.00;;;;;;;22.69;100.00;101028.91;5015497;28;20025;-69
2021/07/24 03:10:55;;;;;;;7.35;4.82;;;;;;;22.45;100.00;101031.25;5015183;28;20370;-69
2021/07/24 03:13:41;;;;;;;9.65;5.35;;;;;;;22.50;100.00;101031.88;5001451;28;20025;-69
2021/07/24 03:16:27;;;;;;;12.52;5.50;;;;;;;22.64;100.00;101031.00;5014901;28;20040;-69
2021/07/24 03:19:13;;;;;;;11.40;5.72;;;;;;;22.60;100.00;101032.16;5014735;28;20105;-70
2021/07/24 03:21:58;;;;;;;9.57;6.13;;;;;;;22.72;100.00;101037.63;5001928;28;20095;-70
2021/07/24 03:24:44;;;;;;;12.15;5.88;;;;;;;22.55;100.00;101031.59;5015277;28;20040;-69
2021/07/24 03:27:30;;;;;;;9.70;5.78;;;;;;;22.70;100.00;101033.28;5014150;28;20022;-69
2021/07/24 03:30:16;;;;;;;16.10;5.97;;;;;;;22.88;100.00;101032.16;5014762;28;20053;-69
2021/07/24 03:33:01;;;;;;;10.05;5.70;;;;;;;22.83;100.00;101039.63;5014754;28;20037;-70
2021/07/24 03:35:47;;;;;;;9.63;5.93;;;;;;;22.95;100.00;101034.34;5014402;28;20029;-70
2021/07/24 03:38:33;;;;;;;9.20;5.63;;;;;;;22.96;100.00;101041.41;5015327;28;20056;-70
2021/07/24 03:41:18;;;;;;;10.05;5.70;;;;;;;22.99;100.00;101038.53;5015108;28;20041;-70
2021/07/24 03:44:04;;;;;;;9.30;5.20;;;;;;;22.66;100.00;101047.78;5014418;28;20050;-70
2021/07/24 03:46:51;;;;;;;8.40;5.97;;;;;;;22.68;100.00;101053.91;5014347;28;20101;-70
2021/07/24 03:49:36;;;;;;;7.97;5.63;;;;;;;22.22;100.00;101063.81;5000875;28;20037;-70
2021/07/24 03:52:22;;;;;;;7.65;5.93;;;;;;;22.13;100.00;101066.19;5014838;28;20438;-70
2021/07/24 03:55:09;;;;;;;9.70;6.25;;;;;;;22.00;100.00;101062.53;5014625;28;20476;-70
2021/07/24 03:57:56;;;;;;;7.78;6.43;;;;;;;22.03;100.00;101075.69;4988545;28;20026;-70
2021/07/24 04:00:47;;;;;;;7.50;6.05;;;;;;;21.72;100.00;101073.94;5014171;28;20042;-68
2021/07/24 04:03:33;;;;;;;14.48;6.63;;;;;;;21.76;100.00;101074.63;5015262;28;20465;-69
2021/07/24 04:06:24;;;;;;;7.78;5.60;;;;;;;21.59;100.00;101074.69;5014808;28;20026;-69
2021/07/24 04:09:10;;;;;;;10.50;6.20;;;;;;;21.51;100.00;101083.16;5015754;28;20523;-69
2021/07/24 04:11:56;;;;;;;9.65;5.85;;;;;;;21.84;100.00;101075.91;5004513;28;20100;-69
2021/07/24 04:14:42;;;;;;;9.65;5.68;;;;;;;22.09;100.00;101086.00;5017676;28;20454;-69
2021/07/24 04:17:27;;;;;;;10.48;6.32;;;;;;;22.14;100.00;101079.44;5018843;28;20456;-69
2021/07/24 04:20:15;;;;;;;10.73;6.93;;;;;;;22.12;100.00;101089.34;5005645;28;20461;-68
2021/07/24 04:23:01;;;;;;;15.07;6.90;;;;;;;22.32;100.00;101090.84;5019558;28;20030;-69
2021/07/24 04:25:47;;;;;;;10.48;7.43;;;;;;;22.36;100.00;101087.91;5018220;28;20025;-69
2021/07/24 04:28:32;;;;;;;10.23;7.28;;;;;;;22.30;100.00;101087.41;5018475;28;20026;-69
2021/07/24 04:31:18;;;;;;;14.80;7.55;;;;;;;22.64;100.00;101087.97;5017502;28;20025;-69
2021/07/24 04:34:04;;;;;;;11.30;7.88;;;;;;;22.64;100.00;101089.78;5017662;28;20108;-69
2021/07/24 04:36:49;;;;;;;13.88;8.15;;;;;;;22.46;100.00;101090.84;5017781;28;20442;-69
2021/07/24 04:39:35;;;;;;;13.68;8.52;;;;;;;22.58;100.00;101088.34;5018560;28;20026;-70
2021/07/24 04:42:22;;;;;;;13.10;8.27;;;;;;;22.74;100.00;101094.47;5018702;28;20478;-69
2021/07/24 04:45:08;;;;;;;15.40;8.98;;;;;;;22.69;100.00;101088.56;5017236;28;20092;-69
2021/07/24 04:47:54;;;;;;;16.08;9.35;;;;;;;23.13;100.00;101089.31;5017788;28;20366;-69
2021/07/24 04:50:46;;;;;;;11.27;8.50;;;;;;;23.02;100.00;101089.13;5017921;28;20033;-69
2021/07/24 04:53:33;;;;;;;18.75;9.20;;;;;;;23.07;100.00;101089.69;5018296;28;20072;-69
2021/07/24 04:56:18;;;;;;;17.00;9.65;;;;;;;22.91;100.00;101090.75;5017433;28;20034;-69
2021/07/24 04:59:06;;;;;;;15.85;9.68;;;;;;;23.05;100.00;101077.38;5017674;28;20030;-69
2021/07/24 05:01:52;;;;;;;19.13;10.00;;;;;;;23.30;100.00;101081.09;5004669;28;20041;-69
2021/07/24 05:04:37;;;;;;;18.48;9.40;;;;;;;23.57;100.00;101080.28;5017702;28;20113;-69
2021/07/24 05:07:23;;;;;;;15.82;9.00;;;;;;;22.95;100.00;101084.28;5016861;28;20032;-69
2021/07/24 05:10:10;;;;;;;17.27;9.20;;;;;;;23.60;100.00;101082.75;5017826;28;20030;-69
2021/07/24 05:12:56;;;;;;;18.77;9.90;;;;;;;23.83;100.00;101079.44;5016697;28;20034;-69
2021/07/24 05:15:41;;;;;;;15.35;9.40;;;;;;;24.09;100.00;101089.28;5016478;28;20026;-70
2021/07/24 05:18:27;;;;;;;15.02;8.70;;;;;;;24.11;100.00;101096.25;5017928;28;20070;-69
2021/07/24 05:21:17;;;;;;;14.70;8.93;;;;;;;23.97;100.00;101096.31;5016256;28;20100;-69
2021/07/24 05:24:03;;;;;;;14.27;7.63;;;;;;;24.24;100.00;101104.31;5016612;28;20030;-69
2021/07/24 05:26:49;;;;;;;17.25;8.50;;;;;;;24.31;100.00;101106.47;5003964;28;20026;-70
2021/07/24 05:29:35;;;;;;;14.07;7.40;;;;;;;24.76;100.00;101110.53;5017183;28;20033;-70
2021/07/24 05:32:20;;;;;;;13.50;6.43;;;;;;;24.37;100.00;101106.06;5016091;28;20061;-71
2021/07/24 05:35:07;;;;;;;15.68;7.00;;;;;;;24.62;100.00;101105.25;5016571;28;20026;-70
2021/07/24 05:37:52;;;;;;;17.08;7.28;;;;;;;24.55;100.00;101103.94;5016070;28;20045;-70
2021/07/24 05:40:38;;;;;;;11.20;7.43;;;;;;;24.39;100.00;101104.13;5016968;28;20037;-70
2021/07/24 05:43:24;;;;;;;12.02;8.18;;;;;;;24.64;100.00;101108.69;5017082;28;20057;-70
2021/07/24 05:46:09;;;;;;;13.70;7.10;;;;;;;24.73;100.00;101108.06;5016200;28;20041;-71
2021/07/24 05:48:55;;;;;;;10.48;7.22;;;;;;;24.71;100.00;101116.19;5016544;28;20026;-71
2021/07/24 05:51:41;;;;;;;13.77;7.88;;;;;;;24.13;100.00;101109.53;5004118;28;20128;-69
2021/07/24 05:54:27;;;;;;;12.45;6.90;;;;;;;24.29;100.00;101112.88;5002463;28;20462;-69
2021/07/24 05:57:12;;;;;;;13.15;7.40;;;;;;;24.74;100.00;101116.00;5004122;28;20347;-70
2021/07/24 05:59:58;;;;;;;11.88;6.95;;;;;;;24.50;100.00;101103.38;5017000;28;20442;-70
2021/07/24 06:02:44;;;;;;;9.85;7.80;;;;;;;24.65;100.00;101113.09;5015750;28;20382;-70
2021/07/24 06:05:30;;;;;;;18.33;7.70;;;;;;;25.06;100.00;101114.59;5015885;28;20034;-70
2021/07/24 06:08:15;;;;;;;15.82;7.38;;;;;;;25.41;100.00;101109.41;5015564;28;20025;-70
2021/07/24 06:11:05;;;;;;;14.40;8.50;;;;;;;25.46;100.00;101117.97;5015518;28;20030;-69
2021/07/24 06:13:52;;;;;;;16.10;8.65;;;;;;;25.19;100.00;101123.47;5003210;28;20072;-70
2021/07/24 06:16:38;;;;;;;16.70;9.13;;;;;;;25.15;100.00;101119.28;5003446;28;20524;-69
2021/07/24 06:19:24;;;;;;;21.70;7.53;;;;;;;25.10;100.00;101116.09;5016814;28;20033;-70
2021/07/24 06:22:09;;;;;;;16.88;8.13;;;;;;;25.19;100.00;101111.91;5015442;28;20025;-70
2021/07/24 06:24:55;;;;;;;17.65;7.68;;;;;;;25.53;100.00;101114.75;5016459;28;20037;-69
2021/07/24 06:27:41;;;;;;;20.50;8.25;;;;;;;25.96;100.00;101109.78;5015339;28;20033;-70
2021/07/24 06:30:28;;;;;;;47.97;10.40;;;;;;;25.91;100.00;101109.22;5016199;28;20038;-71
2021/07/24 06:33:14;;;;;;;28.10;8.75;;;;;;;26.04;100.00;101108.22;5016123;28;20026;-73
2021/07/24 06:36:00;;;;;;;11.07;7.20;;;;;;;26.62;100.00;101110.91;5016541;28;20029;-71
2021/07/24 06:38:46;;;;;;;16.40;7.15;;;;;;;26.62;100.00;101115.41;5016289;28;20430;-70
2021/07/24 06:41:34;;;;;;;15.93;7.00;;;;;;;26.88;100.00;101115.09;5015235;28;20060;-70
2021/07/24 06:44:21;;;;;;;17.65;6.95;;;;;;;27.06;100.00;101120.88;5015010;28;20443;-70
2021/07/24 06:47:08;;;;;;;21.63;7.68;;;;;;;26.73;100.00;101118.16;5003072;28;20041;-70
2021/07/24 06:49:53;;;;;;;20.55;7.05;;;;;;;26.41;100.00;101117.88;5015756;28;20107;-70
2021/07/24 06:52:39;;;;;;;14.18;6.85;;;;;;;26.82;100.00;101117.41;5015574;28;20022;-71
2021/07/24 06:55:26;;;;;;;18.27;6.55;;;;;;;26.80;100.00;101120.22;5015345;28;20029;-71
2021/07/24 06:58:14;;;;;;;19.50;6.80;;;;;;;26.86;100.00;101124.25;5001604;28;20371;-71
2021/07/24 07:01:00;;;;;;;19.50;7.03;;;;;;;27.65;100.00;101118.78;5015803;28;20037;-71
2021/07/24 07:03:46;;;;;;;22.63;6.90;;;;;;;27.91;100.00;101114.81;5015514;28;20151;-70
2021/07/24 07:06:31;;;;;;;17.92;8.07;;;;;;;27.96;97.98;101129.59;5001950;28;20022;-70
2021/07/24 07:09:17;;;;;;;27.00;8.43;;;;;;;27.87;95.36;101124.13;5014239;28;20025;-70
2021/07/24 07:12:03;;;;;;;20.27;7.05;;;;;;;28.15;95.00;101119.03;5015639;28;20033;-70
2021/07/24 07:14:49;;;;;;;21.92;7.22;;;;;;;28.22;91.57;101116.66;5014978;28;20021;-71
2021/07/24 07:17:38;;;;;;;20.08;7.15;;;;;;;28.69;87.93;101125.13;5015204;28;20026;-71
2021/07/24 07:20:23;;;;;;;17.25;6.40;;;;;;;28.14;86.76;101125.41;5015731;28;20057;-72
2021/07/24 07:23:09;;;;;;;14.32;6.28;;;;;;;28.58;82.61;101127.91;5014448;28;20037;-72
2021/07/24 07:25:55;;;;;;;28.27;7.88;;;;;;;28.78;78.63;101123.50;5002394;28;20033;-72
2021/07/24 07:28:41;;;;;;;22.35;7.28;;;;;;;29.12;73.79;101130.38;5015345;28;20066;-72
2021/07/24 07:31:27;;;;;;;38.72;7.88;;;;;;;28.82;74.14;101125.81;5015143;28;20040;-72
2021/07/24 07:34:12;;;;;;;16.60;5.35;;;;;;;28.64;72.10;101135.47;5014464;28;20096;-72
2021/07/24 07:36:58;;;;;;;13.80;5.07;;;;;;;28.93;69.30;101136.50;5014233;28;20021;-71
2021/07/24 07:39:44;;;;;;;11.20;4.45;;;;;;;29.02;70.08;101130.34;5014502;28;20054;-71
2021/07/24 07:42:29;;;;;;;10.73;4.78;;;;;;;29.01;69.32;101136.72;5015462;28;20049;-71
2021/07/24 07:45:16;;;;;;;10.77;4.35;;;;;;;28.72;69.49;101132.97;5016897;28;20034;-71
2021/07/24 07:48:01;;;;;;;7.70;3.90;;;;;;;28.72;67.00;101130.25;5018964;28;20403;-71
2021/07/24 07:50:47;;;;;;;5.65;3.95;;;;;;;28.70;64.31;101142.19;5018036;28;20033;-71
2021/07/24 07:53:34;;;;;;;6.90;3.47;;;;;;;29.17;60.23;101142.47;5019236;28;20109;-72
2021/07/24 07:56:19;;;;;;;6.53;3.67;;;;;;;29.45;61.99;101141.75;5018444;28;20030;-72
2021/07/24 07:59:05;;;;;;;14.23;4.47;;;;;;;29.41;63.72;101140.31;5018139;28;20034;-72
2021/07/24 08:01:51;;;;;;;9.88;4.60;;;;;;;29.51;62.32;101141.22;5017985;28;20029;-72
2021/07/24 08:04:37;;;;;;;9.25;4.18;;;;;;;29.30;63.65;101140.44;5018266;28;20091;-72
2021/07/24 08:07:22;;;;;;;6.72;4.25;;;;;;;29.84;60.17;101148.13;5017845;28;20480;-72
2021/07/24 08:10:08;;;;;;;6.40;4.00;;;;;;;30.07;60.25;101134.25;5005790;28;20034;-72
2021/07/24 08:13:18;;;;;;;8.77;3.45;;;;;;;30.08;52.81;101149.47;5019262;28;20026;-73
2021/07/24 08:16:13;;;;;;;8.60;3.33;;;;;;;30.43;51.22;101147.09;5206086;22;20054;-72
2021/07/24 08:18:58;;;;;;;7.00;3.63;;;;;;;30.52;52.86;101146.25;5018243;28;20084;-72
2021/07/24 08:21:44;;;;;;;9.40;3.80;;;;;;;30.83;54.17;101136.94;5017463;28;20041;-72
2021/07/24 08:24:30;;;;;;;6.65;3.75;;;;;;;30.98;55.93;101146.31;5017210;28;20040;-72
2021/07/24 08:27:16;;;;;;;6.75;3.90;;;;;;;30.23;58.85;101140.00;4997242;28;20033;-72
2021/07/24 08:30:02;;;;;;;9.63;4.03;;;;;;;30.24;58.57;101136.28;4997531;28;20066;-72
2021/07/24 08:33:10;;;;;;;10.18;3.75;;;;;;;30.82;58.66;101135.25;4997771;28;20031;-72
2021/07/24 08:35:56;;;;;;;10.77;3.85;;;;;;;30.89;60.80;101130.97;4985189;28;20034;-70
2021/07/24 08:38:41;;;;;;;9.85;4.00;;;;;;;30.47;62.57;101131.44;4997110;28;20026;-71
2021/07/24 08:41:27;;;;;;;8.77;4.05;;;;;;;30.45;59.69;101131.56;4997351;28;20029;-71
2021/07/24 08:44:13;;;;;;;10.60;4.40;;;;;;;30.62;60.31;101130.84;4997683;28;20034;-69
2021/07/24 08:46:59;;;;;;;9.70;4.20;;;;;;;30.75;61.83;101136.84;4996978;28;20038;-69
2021/07/24 08:49:44;;;;;;;10.27;4.10;;;;;;;30.54;60.48;101130.69;4996671;28;20331;-70
2021/07/24 08:52:31;;;;;;;17.35;5.75;;;;;;;30.17;60.88;101129.72;4997429;28;20169;-70
2021/07/24 08:55:21;;;;;;;25.13;5.05;;;;;;;31.06;59.21;101132.91;4982646;28;20030;-70
2021/07/24 08:58:12;;;;;;;9.65;4.22;;;;;;;31.33;58.11;101132.13;4997821;28;20435;-71
2021/07/24 09:00:58;;;;;;;13.23;4.38;;;;;;;31.25;56.12;101129.28;4984508;28;20038;-71
2021/07/24 09:03:44;;;;;;;11.57;4.72;;;;;;;31.56;55.28;101130.72;4996610;28;20046;-71
2021/07/24 09:06:30;;;;;;;9.38;4.15;;;;;;;31.38;54.90;101127.97;4997285;28;20113;-71
2021/07/24 09:09:17;;;;;;;12.48;4.30;;;;;;;31.02;56.51;101131.50;4996299;28;20040;-70
2021/07/24 09:12:03;;;;;;;16.15;4.55;;;;;;;31.37;58.12;101124.56;4983639;28;20026;-71
2021/07/24 09:14:50;;;;;;;11.57;4.97;;;;;;;31.03;58.74;101130.47;4996354;28;20499;-71
2021/07/24 09:17:36;;;;;;;11.50;4.10;;;;;;;31.68;55.11;101128.66;4996281;28;20133;-71
2021/07/24 09:20:26;;;;;;;9.80;4.25;;;;;;;31.44;55.05;101123.81;4996668;28;20040;-70
2021/07/24 09:23:25;;;;;;;10.27;4.00;;;;;;;31.46;52.93;101126.38;4996903;28;20422;-71
2021/07/24 09:26:34;;;;;;;14.40;4.78;;;;;;;32.15;50.65;101122.09;4996304;28;20030;-71
2021/07/24 09:29:21;;;;;;;8.57;4.40;;;;;;;31.87;50.28;101128.56;4996982;28;20030;-71
2021/07/24 09:32:08;;;;;;;8.48;3.90;;;;;;;31.80;50.83;101127.47;4996169;28;20367;-71
2021/07/24 09:34:54;;;;;;;7.55;3.58;;;;;;;31.80;49.29;101122.06;4996541;28;20030;-71
2021/07/24 09:37:40;;;;;;;8.13;3.80;;;;;;;31.85;49.31;101125.19;4997891;28;20022;-70
2021/07/24 09:40:26;;;;;;;7.20;3.65;;;;;;;31.45;50.26;101119.25;4982459;28;20030;-71
2021/07/24 09:43:36;;;;;;;6.30;3.80;;;;;;;31.42;51.19;101126.66;4996530;28;20042;-71
2021/07/24 09:46:22;;;;;;;7.40;3.45;;;;;;;30.91;51.90;101125.41;4996345;28;20034;-70
2021/07/24 09:49:14;;;;;;;7.18;3.15;;;;;;;30.84;52.32;101119.72;4982646;28;20082;-71
2021/07/24 09:52:17;;;;;;;8.05;3.55;;;;;;;31.03;52.03;101127.78;4996704;28;20030;-71
2021/07/24 09:55:19;;;;;;;6.80;3.22;;;;;;;31.35;47.98;101122.84;4996497;28;20438;-71
2021/07/24 09:58:19;;;;;;;5.45;2.95;;;;;;;31.39;45.80;101118.81;4996391;28;20037;-71
2021/07/24 10:01:09;;;;;;;6.93;3.47;;;;;;;30.62;47.10;101114.59;4982903;28;20026;-71
2021/07/24 10:04:02;;;;;;;6.82;2.90;;;;;;;31.03;45.36;101114.25;4996173;28;20018;-71
2021/07/24 10:06:52;;;;;;;4.50;2.90;;;;;;;30.75;44.68;101109.78;4995904;28;20022;-70
2021/07/24 10:09:40;;;;;;;8.40;3.08;;;;;;;31.21;43.67;101104.34;4995366;28;20022;-70
2021/07/24 10:12:26;;;;;;;5.65;3.13;;;;;;;31.10;40.88;101107.25;4996508;28;20034;-71
2021/07/24 10:15:13;;;;;;;7.70;3.40;;;;;;;31.16;40.77;101108.50;4995083;28;20030;-71
2021/07/24 10:18:00;;;;;;;6.97;3.05;;;;;;;31.37;40.71;101113.72;4982363;28;20046;-72
2021/07/24 10:20:47;;;;;;;13.05;3.45;;;;;;;31.75;39.40;101108.06;4995316;28;20510;-71
2021/07/24 10:23:33;;;;;;;5.53;3.35;;;;;;;31.52;37.65;101112.19;4995641;28;20462;-71
2021/07/24 10:26:32;;;;;;;8.35;3.25;;;;;;;31.21;38.75;101111.59;4982102;28;20045;-70
2021/07/24 10:29:23;;;;;;;6.28;3.10;;;;;;;31.39;40.67;101108.00;4982169;28;20026;-70
2021/07/24 10:32:11;;;;;;;6.22;3.33;;;;;;;31.03;39.09;101106.13;4995632;28;20030;-70
2021/07/24 10:34:57;;;;;;;5.15;3.50;;;;;;;31.06;40.52;101099.56;4995964;28;20037;-70
2021/07/24 10:37:44;;;;;;;5.88;3.47;;;;;;;31.53;40.39;101101.22;4995782;28;20022;-70
2021/07/24 10:40:30;;;;;;;5.03;3.90;;;;;;;31.62;39.65;101099.47;4995047;28;20065;-70
2021/07/24 10:43:54;;;;;;;5.15;3.75;;;;;;;31.74;39.76;101096.38;4994748;28;20061;-72
2021/07/24 10:46:40;;;;;;;7.82;3.35;;;;;;;31.12;41.24;101088.13;4994669;28;20117;-71
2021/07/24 10:49:34;;;;;;;8.05;3.92;;;;;;;31.70;42.92;101084.13;4994591;28;20030;-71
2021/07/24 10:52:20;;;;;;;5.90;3.80;;;;;;;30.37;45.13;101088.16;4995268;28;20030;-72
2021/07/24 10:55:12;;;;;;;10.13;4.00;;;;;;;31.04;44.15;101088.91;4982326;28;20026;-72
2021/07/24 10:58:01;;;;;;;6.65;3.85;;;;;;;31.56;41.08;101089.22;4994804;28;20034;-70
2021/07/24 11:00:54;;;;;;;4.78;3.80;;;;;;;31.33;40.74;101086.94;4995722;28;20402;-70
2021/07/24 11:03:46;;;;;;;6.82;3.90;;;;;;;31.70;39.79;101081.41;4981867;28;20123;-71
2021/07/24 11:06:32;;;;;;;6.03;3.90;;;;;;;31.58;40.64;101084.50;4981342;28;20031;-70
2021/07/24 11:09:28;;;;;;;6.47;3.65;;;;;;;30.75;42.96;101085.44;4981025;28;20026;-73
2021/07/24 11:12:15;;;;;;;6.93;3.95;;;;;;;31.42;43.10;101088.72;4994780;28;20026;-72
2021/07/24 11:15:05;;;;;;;5.97;4.20;;;;;;;30.37;43.77;101076.47;4994828;28;20113;-71
2021/07/24 11:18:24;;;;;;;6.05;3.85;;;;;;;30.57;44.44;101073.63;4994700;28;20050;-72
2021/07/24 11:21:09;;;;;;;6.70;3.70;;;;;;;31.52;42.36;101072.44;4994382;28;20053;-71
2021/07/24 11:24:11;;;;;;;8.88;3.95;;;;;;;30.68;44.41;101068.03;4994434;28;20028;-71
2021/07/24 11:26:58;;;;;;;6.45;4.10;;;;;;;30.97;43.12;101074.25;4981059;28;20026;-71
2021/07/24 11:29:44;;;;;;;10.15;4.40;;;;;;;30.99;42.88;101072.22;4994223;28;20435;-71
2021/07/24 11:32:32;;;;;;;5.97;4.20;;;;;;;31.31;43.70;101067.25;4994159;28;20062;-71
2021/07/24 11:35:18;;;;;;;5.75;3.90;;;;;;;31.28;42.56;101064.00;4994714;28;20026;-71
2021/07/24 11:38:19;;;;;;;10.18;4.65;;;;;;;31.80;42.78;101070.56;4994701;28;20026;-71
2021/07/24 11:41:07;;;;;;;5.25;4.00;;;;;;;31.71;41.82;101058.75;4995189;28;20065;-71
2021/07/24 11:43:59;;;;;;;7.93;4.60;;;;;;;31.73;42.49;101064.88;4994845;28;20347;-72
2021/07/24 11:46:57;;;;;;;6.47;4.40;;;;;;;31.88;42.79;101065.22;4994541;28;20363;-71
2021/07/24 11:49:44;;;;;;;5.90;4.45;;;;;;;32.06;43.19;101074.22;4994637;28;20034;-71
2021/07/24 11:52:30;;;;;;;8.98;4.30;;;;;;;32.16;43.59;101072.25;4994285;28;20033;-71
2021/07/24 11:55:26;;;;;;;4.97;3.75;;;;;;;32.43;42.24;101072.19;4993731;28;20062;-72
2021/07/24 11:58:14;;;;;;;7.57;4.20;;;;;;;32.10;43.17;101064.75;4995003;28;20093;-72
2021/07/24 12:01:01;;;;;;;6.65;4.68;;;;;;;31.85;44.82;101062.84;4994721;28;20444;-72
2021/07/24 12:03:46;;;;;;;9.20;5.38;;;;;;;31.56;44.61;101056.72;4994581;28;20061;-72
2021/07/24 12:06:34;;;;;;;10.02;6.00;;;;;;;32.80;43.58;101064.63;4994081;28;20033;-72
2021/07/24 12:09:21;;;;;;;7.47;5.00;;;;;;;32.50;43.42;101070.53;4993750;28;20026;-72
2021/07/24 12:12:07;;;;;;;8.02;4.35;;;;;;;32.57;42.34;101069.75;4994575;28;20451;-72
2021/07/24 12:14:56;;;;;;;5.85;4.22;;;;;;;32.78;41.90;101059.34;4994192;28;20065;-72
2021/07/24 12:17:41;;;;;;;7.07;4.55;;;;;;;33.11;40.32;101060.44;4993497;28;20046;-72
2021/07/24 12:20:27;;;;;;;5.47;4.47;;;;;;;32.71;40.10;101057.47;4993907;28;20029;-73
2021/07/24 12:23:21;;;;;;;7.57;4.18;;;;;;;32.68;40.57;101046.91;4994481;28;20058;-71
2021/07/24 12:26:15;;;;;;;6.57;3.95;;;;;;;32.36;39.93;101038.56;4994009;28;20092;-71
2021/07/24 12:29:21;;;;;;;7.15;4.15;;;;;;;32.70;39.21;101051.16;4993849;28;20037;-71
2021/07/24 12:32:10;;;;;;;7.22;3.95;;;;;;;32.06;41.31;101039.78;4998046;28;20455;-71
2021/07/24 12:35:13;;;;;;;7.30;4.15;;;;;;;32.62;39.51;101045.69;4997283;28;20529;-70
2021/07/24 12:38:03;;;;;;;6.88;4.07;;;;;;;32.57;38.16;101044.47;4997669;28;20473;-71
2021/07/24 12:40:49;;;;;;;6.65;4.68;;;;;;;32.61;38.41;101043.13;4998144;28;20030;-70
2021/07/24 12:43:41;;;;;;;5.57;4.10;;;;;;;32.58;38.53;101041.59;4997093;28;20022;-70
2021/07/24 12:46:27;;;;;;;6.03;4.63;;;;;;;32.64;38.31;101046.38;4997472;28;20039;-71
2021/07/24 12:49:13;;;;;;;9.45;4.30;;;;;;;32.39;38.39;101038.25;4997327;28;20455;-71
2021/07/24 12:52:22;;;;;;;8.35;5.43;;;;;;;32.37;39.89;101034.81;4997302;28;20434;-71
2021/07/24 12:55:14;;;;;;;8.93;4.43;;;;;;;32.87;39.21;101031.25;4996884;28;20043;-71